sensor_id;sensor_type;location;lat;lon;timestamp;temperature;humidity
23685;DHT22;12020;51.384;6.908;2023-03-07T00:00:12;5.10;99.90
23685;DHT22;12020;51.384;6.908;2023-03-07T00:02:39;5.00;99.90
23685;DHT22;12020;51.384;6.908;2023-03-07T00:05:05;5.00;99.90
23685;DHT22;12020;51.384;6.908;2023-03-07T00:07:31;5.00;99.90
23685;DHT22;12020;51.384;6.908;2023-03-07T00:09:57;5.00;99.90
23685;DHT22;12020;51.384;6.908;2023-03-07T00:12:23;5.10;99.90
23685;DHT22;12020;51.384;6.908;2023-03-07T00:14:48;5.10;99.90
23685;DHT22;12020;51.384;6.908;2023-03-07T00:17:14;5.10;99.90
23685;DHT22;12020;51.384;6.908;2023-03-07T00:19:43;5.10;99.90
23685;DHT22;12020;51.384;6.908;2023-03-07T00:22:09;5.10;99.90
23685;DHT22;12020;51.384;6.908;2023-03-07T00:24:35;5.10;99.90
23685;DHT22;12020;51.384;6.908;2023-03-07T00:27:01;5.10;99.90
23685;DHT22;12020;51.384;6.908;2023-03-07T00:29:27;5.10;99.90
23685;DHT22;12020;51.384;6.908;2023-03-07T00:31:52;5.10;99.90
23685;DHT22;12020;51.384;6.908;2023-03-07T00:34:19;5.20;99.90
23685;DHT22;12020;51.384;6.908;2023-03-07T00:36:44;5.20;99.90
23685;DHT22;12020;51.384;6.908;2023-03-07T00:39:10;5.30;99.90
23685;DHT22;12020;51.384;6.908;2023-03-07T00:41:36;5.20;99.90
23685;DHT22;12020;51.384;6.908;2023-03-07T00:44:02;5.20;99.90
23685;DHT22;12020;51.384;6.908;2023-03-07T00:46:27;5.20;99.90
23685;DHT22;12020;51.384;6.908;2023-03-07T00:48:54;5.20;99.90
23685;DHT22;12020;51.384;6.908;2023-03-07T00:51:21;5.20;99.90
23685;DHT22;12020;51.384;6.908;2023-03-07T00:53:47;5.20;99.90
23685;DHT22;12020;51.384;6.908;2023-03-07T00:56:18;5.20;99.90
23685;DHT22;12020;51.384;6.908;2023-03-07T00:58:45;5.20;99.90
23685;DHT22;12020;51.384;6.908;2023-03-07T01:01:13;5.20;99.90
23685;DHT22;12020;51.384;6.908;2023-03-07T01:03:39;5.20;99.90
23685;DHT22;12020;51.384;6.908;2023-03-07T01:06:09;5.20;99.90
23685;DHT22;12020;51.384;6.908;2023-03-07T01:08:37;5.20;99.90
23685;DHT22;12020;51.384;6.908;2023-03-07T01:11:03;5.20;99.90
23685;DHT22;12020;51.384;6.908;2023-03-07T01:13:30;5.20;99.90
23685;DHT22;12020;51.384;6.908;2023-03-07T01:16:06;5.20;99.90
23685;DHT22;12020;51.384;6.908;2023-03-07T01:18:31;5.20;99.90
23685;DHT22;12020;51.384;6.908;2023-03-07T01:20:57;5.20;99.90
23685;DHT22;12020;51.384;6.908;2023-03-07T01:23:24;5.30;99.90
23685;DHT22;12020;51.384;6.908;2023-03-07T01:25:49;5.30;99.90
23685;DHT22;12020;51.384;6.908;2023-03-07T01:28:16;5.30;99.90
23685;DHT22;12020;51.384;6.908;2023-03-07T01:30:41;5.30;99.90
23685;DHT22;12020;51.384;6.908;2023-03-07T01:33:08;5.30;99.90
23685;DHT22;12020;51.384;6.908;2023-03-07T01:35:38;5.30;99.90
23685;DHT22;12020;51.384;6.908;2023-03-07T01:38:04;5.20;99.90
23685;DHT22;12020;51.384;6.908;2023-03-07T01:40:30;5.20;99.90
23685;DHT22;12020;51.384;6.908;2023-03-07T01:43:20;5.20;99.90
23685;DHT22;12020;51.384;6.908;2023-03-07T01:48:13;5.20;99.90
23685;DHT22;12020;51.384;6.908;2023-03-07T01:50:39;5.20;99.90
23685;DHT22;12020;51.384;6.908;2023-03-07T01:53:05;5.20;99.90
23685;DHT22;12020;51.384;6.908;2023-03-07T01:55:34;5.20;99.90
23685;DHT22;12020;51.384;6.908;2023-03-07T01:58:05;5.20;99.90
23685;DHT22;12020;51.384;6.908;2023-03-07T02:00:31;5.40;99.90
23685;DHT22;12020;51.384;6.908;2023-03-07T02:05:46;5.30;99.90
23685;DHT22;12020;51.384;6.908;2023-03-07T02:08:16;5.20;99.90
23685;DHT22;12020;51.384;6.908;2023-03-07T02:10:43;5.20;99.90
23685;DHT22;12020;51.384;6.908;2023-03-07T02:13:08;5.20;99.90
23685;DHT22;12020;51.384;6.908;2023-03-07T02:15:35;5.30;99.90
23685;DHT22;12020;51.384;6.908;2023-03-07T02:18:00;5.20;99.90
23685;DHT22;12020;51.384;6.908;2023-03-07T02:20:33;5.30;99.90
23685;DHT22;12020;51.384;6.908;2023-03-07T02:23:01;5.30;99.90
23685;DHT22;12020;51.384;6.908;2023-03-07T02:25:49;5.30;99.90
23685;DHT22;12020;51.384;6.908;2023-03-07T02:28:17;5.20;99.90
23685;DHT22;12020;51.384;6.908;2023-03-07T02:31:13;5.30;99.90
23685;DHT22;12020;51.384;6.908;2023-03-07T02:33:38;5.30;99.90
23685;DHT22;12020;51.384;6.908;2023-03-07T02:36:10;5.30;99.90
23685;DHT22;12020;51.384;6.908;2023-03-07T02:38:38;5.30;99.90
23685;DHT22;12020;51.384;6.908;2023-03-07T02:41:08;5.30;99.90
23685;DHT22;12020;51.384;6.908;2023-03-07T02:43:35;5.30;99.90
23685;DHT22;12020;51.384;6.908;2023-03-07T02:46:02;5.30;99.90
23685;DHT22;12020;51.384;6.908;2023-03-07T02:48:28;5.30;99.90
23685;DHT22;12020;51.384;6.908;2023-03-07T02:50:54;5.20;99.90
23685;DHT22;12020;51.384;6.908;2023-03-07T02:53:20;5.20;99.90
23685;DHT22;12020;51.384;6.908;2023-03-07T02:55:46;5.10;99.90
23685;DHT22;12020;51.384;6.908;2023-03-07T02:58:11;5.20;99.90
23685;DHT22;12020;51.384;6.908;2023-03-07T03:00:37;5.20;99.90
23685;DHT22;12020;51.384;6.908;2023-03-07T03:03:03;5.20;99.90
23685;DHT22;12020;51.384;6.908;2023-03-07T03:05:28;5.20;99.90
23685;DHT22;12020;51.384;6.908;2023-03-07T03:07:54;5.20;99.90
23685;DHT22;12020;51.384;6.908;2023-03-07T03:10:20;5.40;99.90
23685;DHT22;12020;51.384;6.908;2023-03-07T03:12:46;5.20;99.90
23685;DHT22;12020;51.384;6.908;2023-03-07T03:15:12;5.40;99.90
23685;DHT22;12020;51.384;6.908;2023-03-07T03:17:38;5.20;99.90
23685;DHT22;12020;51.384;6.908;2023-03-07T03:20:05;5.20;99.90
23685;DHT22;12020;51.384;6.908;2023-03-07T03:22:37;5.30;99.90
23685;DHT22;12020;51.384;6.908;2023-03-07T03:25:06;5.30;99.90
23685;DHT22;12020;51.384;6.908;2023-03-07T03:27:33;5.30;99.90
23685;DHT22;12020;51.384;6.908;2023-03-07T03:29:58;5.30;99.90
23685;DHT22;12020;51.384;6.908;2023-03-07T03:32:24;5.30;99.90
23685;DHT22;12020;51.384;6.908;2023-03-07T03:34:50;5.30;99.90
23685;DHT22;12020;51.384;6.908;2023-03-07T03:37:15;5.30;99.90
23685;DHT22;12020;51.384;6.908;2023-03-07T03:39:41;5.30;99.90
23685;DHT22;12020;51.384;6.908;2023-03-07T03:42:13;5.30;99.90
23685;DHT22;12020;51.384;6.908;2023-03-07T03:44:38;5.30;99.90
23685;DHT22;12020;51.384;6.908;2023-03-07T03:47:04;5.30;99.90
23685;DHT22;12020;51.384;6.908;2023-03-07T03:49:30;5.30;99.90
23685;DHT22;12020;51.384;6.908;2023-03-07T03:51:56;5.30;99.90
23685;DHT22;12020;51.384;6.908;2023-03-07T03:54:21;5.30;99.90
23685;DHT22;12020;51.384;6.908;2023-03-07T03:56:47;5.30;99.90
23685;DHT22;12020;51.384;6.908;2023-03-07T03:59:12;5.30;99.90
23685;DHT22;12020;51.384;6.908;2023-03-07T04:01:38;5.30;99.90
23685;DHT22;12020;51.384;6.908;2023-03-07T04:04:04;5.30;99.90
23685;DHT22;12020;51.384;6.908;2023-03-07T04:06:32;5.30;99.90
23685;DHT22;12020;51.384;6.908;2023-03-07T04:08:58;5.30;99.90
23685;DHT22;12020;51.384;6.908;2023-03-07T04:11:25;5.20;99.90
23685;DHT22;12020;51.384;6.908;2023-03-07T04:13:51;5.30;99.90
23685;DHT22;12020;51.384;6.908;2023-03-07T04:16:18;5.30;99.90
23685;DHT22;12020;51.384;6.908;2023-03-07T04:18:43;5.30;99.90
23685;DHT22;12020;51.384;6.908;2023-03-07T04:21:09;5.20;99.90
23685;DHT22;12020;51.384;6.908;2023-03-07T04:23:35;5.20;99.90
23685;DHT22;12020;51.384;6.908;2023-03-07T04:26:03;5.30;99.90
23685;DHT22;12020;51.384;6.908;2023-03-07T04:28:32;5.30;99.90
23685;DHT22;12020;51.384;6.908;2023-03-07T04:31:17;5.30;99.90
23685;DHT22;12020;51.384;6.908;2023-03-07T04:33:43;5.30;99.90
23685;DHT22;12020;51.384;6.908;2023-03-07T04:36:10;5.30;99.90
23685;DHT22;12020;51.384;6.908;2023-03-07T04:38:36;5.20;99.90
23685;DHT22;12020;51.384;6.908;2023-03-07T04:41:04;5.20;99.90
23685;DHT22;12020;51.384;6.908;2023-03-07T04:43:30;5.10;99.90
23685;DHT22;12020;51.384;6.908;2023-03-07T04:45:56;5.20;99.90
23685;DHT22;12020;51.384;6.908;2023-03-07T04:48:21;5.20;99.90
23685;DHT22;12020;51.384;6.908;2023-03-07T04:50:49;5.20;99.90
23685;DHT22;12020;51.384;6.908;2023-03-07T04:53:16;5.20;99.90
23685;DHT22;12020;51.384;6.908;2023-03-07T04:55:42;5.20;99.90
23685;DHT22;12020;51.384;6.908;2023-03-07T04:58:08;5.20;99.90
23685;DHT22;12020;51.384;6.908;2023-03-07T05:00:39;5.10;99.90
23685;DHT22;12020;51.384;6.908;2023-03-07T05:03:05;5.20;99.90
23685;DHT22;12020;51.384;6.908;2023-03-07T05:05:30;5.20;99.90
23685;DHT22;12020;51.384;6.908;2023-03-07T05:07:56;5.10;99.90
23685;DHT22;12020;51.384;6.908;2023-03-07T05:10:25;5.10;99.90
23685;DHT22;12020;51.384;6.908;2023-03-07T05:12:55;5.10;99.90
23685;DHT22;12020;51.384;6.908;2023-03-07T05:15:21;5.20;99.90
23685;DHT22;12020;51.384;6.908;2023-03-07T05:17:53;5.10;99.90
23685;DHT22;12020;51.384;6.908;2023-03-07T05:20:20;5.10;99.90
23685;DHT22;12020;51.384;6.908;2023-03-07T05:22:47;5.10;99.90
23685;DHT22;12020;51.384;6.908;2023-03-07T05:25:14;5.10;99.90
23685;DHT22;12020;51.384;6.908;2023-03-07T05:27:41;5.10;99.90
23685;DHT22;12020;51.384;6.908;2023-03-07T05:30:08;5.20;99.90
23685;DHT22;12020;51.384;6.908;2023-03-07T05:32:34;5.10;99.90
23685;DHT22;12020;51.384;6.908;2023-03-07T05:35:01;5.10;99.90
23685;DHT22;12020;51.384;6.908;2023-03-07T05:37:28;5.10;99.90
23685;DHT22;12020;51.384;6.908;2023-03-07T05:39:55;5.10;99.90
23685;DHT22;12020;51.384;6.908;2023-03-07T05:42:21;5.20;99.90
23685;DHT22;12020;51.384;6.908;2023-03-07T05:44:48;5.10;99.90
23685;DHT22;12020;51.384;6.908;2023-03-07T05:47:14;5.10;99.90
23685;DHT22;12020;51.384;6.908;2023-03-07T05:49:40;5.10;99.90
23685;DHT22;12020;51.384;6.908;2023-03-07T05:52:05;5.10;99.90
23685;DHT22;12020;51.384;6.908;2023-03-07T05:54:36;5.10;99.90
23685;DHT22;12020;51.384;6.908;2023-03-07T05:57:03;5.10;99.90
23685;DHT22;12020;51.384;6.908;2023-03-07T05:59:29;5.10;99.90
23685;DHT22;12020;51.384;6.908;2023-03-07T06:01:55;5.10;99.90
23685;DHT22;12020;51.384;6.908;2023-03-07T06:04:24;5.10;99.90
23685;DHT22;12020;51.384;6.908;2023-03-07T06:06:50;5.10;99.90
23685;DHT22;12020;51.384;6.908;2023-03-07T06:09:17;5.10;99.90
23685;DHT22;12020;51.384;6.908;2023-03-07T06:11:44;5.10;99.90
23685;DHT22;12020;51.384;6.908;2023-03-07T06:14:11;5.10;99.90
23685;DHT22;12020;51.384;6.908;2023-03-07T06:16:39;5.00;99.90
23685;DHT22;12020;51.384;6.908;2023-03-07T06:19:05;5.10;99.90
23685;DHT22;12020;51.384;6.908;2023-03-07T06:21:33;5.10;99.90
23685;DHT22;12020;51.384;6.908;2023-03-07T06:23:59;5.00;99.90
23685;DHT22;12020;51.384;6.908;2023-03-07T06:26:27;5.10;99.90
23685;DHT22;12020;51.384;6.908;2023-03-07T06:28:53;5.10;99.90
23685;DHT22;12020;51.384;6.908;2023-03-07T06:31:20;5.10;99.90
23685;DHT22;12020;51.384;6.908;2023-03-07T06:33:47;5.20;99.90
23685;DHT22;12020;51.384;6.908;2023-03-07T06:36:19;5.20;99.90
23685;DHT22;12020;51.384;6.908;2023-03-07T06:38:47;5.10;99.90
23685;DHT22;12020;51.384;6.908;2023-03-07T06:43:44;5.30;99.90
23685;DHT22;12020;51.384;6.908;2023-03-07T06:46:10;5.40;99.90
23685;DHT22;12020;51.384;6.908;2023-03-07T06:48:36;5.40;99.90
23685;DHT22;12020;51.384;6.908;2023-03-07T06:51:08;5.40;99.90
23685;DHT22;12020;51.384;6.908;2023-03-07T06:53:38;5.30;99.90
23685;DHT22;12020;51.384;6.908;2023-03-07T06:56:07;5.30;99.90
23685;DHT22;12020;51.384;6.908;2023-03-07T06:58:35;5.30;99.90
23685;DHT22;12020;51.384;6.908;2023-03-07T07:01:21;5.20;99.90
23685;DHT22;12020;51.384;6.908;2023-03-07T07:03:48;5.20;99.90
23685;DHT22;12020;51.384;6.908;2023-03-07T07:06:14;5.30;99.90
23685;DHT22;12020;51.384;6.908;2023-03-07T07:08:39;5.30;99.90
23685;DHT22;12020;51.384;6.908;2023-03-07T07:11:05;5.30;99.90
23685;DHT22;12020;51.384;6.908;2023-03-07T07:13:32;5.30;99.90
23685;DHT22;12020;51.384;6.908;2023-03-07T07:16:03;5.30;99.90
23685;DHT22;12020;51.384;6.908;2023-03-07T07:18:29;5.30;99.90
23685;DHT22;12020;51.384;6.908;2023-03-07T07:20:55;5.30;99.90
23685;DHT22;12020;51.384;6.908;2023-03-07T07:23:21;5.30;99.90
23685;DHT22;12020;51.384;6.908;2023-03-07T07:25:46;5.30;99.90
23685;DHT22;12020;51.384;6.908;2023-03-07T07:28:12;5.30;99.90
23685;DHT22;12020;51.384;6.908;2023-03-07T07:30:38;5.30;99.90
23685;DHT22;12020;51.384;6.908;2023-03-07T07:33:03;5.30;99.90
23685;DHT22;12020;51.384;6.908;2023-03-07T07:35:30;5.30;99.90
23685;DHT22;12020;51.384;6.908;2023-03-07T07:37:55;5.40;99.90
23685;DHT22;12020;51.384;6.908;2023-03-07T07:40:21;5.40;99.90
23685;DHT22;12020;51.384;6.908;2023-03-07T07:42:50;5.50;99.90
23685;DHT22;12020;51.384;6.908;2023-03-07T07:45:23;5.40;99.90
23685;DHT22;12020;51.384;6.908;2023-03-07T07:47:49;5.40;99.90
23685;DHT22;12020;51.384;6.908;2023-03-07T07:50:16;5.40;99.90
23685;DHT22;12020;51.384;6.908;2023-03-07T07:52:42;5.40;99.90
23685;DHT22;12020;51.384;6.908;2023-03-07T07:55:08;5.40;99.90
23685;DHT22;12020;51.384;6.908;2023-03-07T07:57:35;5.40;99.90
23685;DHT22;12020;51.384;6.908;2023-03-07T08:00:02;5.40;99.90
23685;DHT22;12020;51.384;6.908;2023-03-07T08:02:28;5.40;99.90
23685;DHT22;12020;51.384;6.908;2023-03-07T08:04:55;5.30;99.90
23685;DHT22;12020;51.384;6.908;2023-03-07T08:07:21;5.40;99.90
23685;DHT22;12020;51.384;6.908;2023-03-07T08:09:46;5.40;99.90
23685;DHT22;12020;51.384;6.908;2023-03-07T08:12:12;5.40;99.90
23685;DHT22;12020;51.384;6.908;2023-03-07T08:14:38;5.30;99.90
23685;DHT22;12020;51.384;6.908;2023-03-07T08:17:05;5.40;99.90
23685;DHT22;12020;51.384;6.908;2023-03-07T08:19:31;5.40;99.90
23685;DHT22;12020;51.384;6.908;2023-03-07T08:21:56;5.40;99.90
23685;DHT22;12020;51.384;6.908;2023-03-07T08:24:23;5.40;99.90
23685;DHT22;12020;51.384;6.908;2023-03-07T08:26:49;5.40;99.90
23685;DHT22;12020;51.384;6.908;2023-03-07T08:29:15;5.40;99.90
23685;DHT22;12020;51.384;6.908;2023-03-07T08:31:43;5.40;99.90
23685;DHT22;12020;51.384;6.908;2023-03-07T08:34:11;5.40;99.90
23685;DHT22;12020;51.384;6.908;2023-03-07T08:36:37;5.40;99.90
23685;DHT22;12020;51.384;6.908;2023-03-07T08:39:04;5.40;99.90
23685;DHT22;12020;51.384;6.908;2023-03-07T08:41:30;5.40;99.90
23685;DHT22;12020;51.384;6.908;2023-03-07T08:43:56;5.40;99.90
23685;DHT22;12020;51.384;6.908;2023-03-07T08:46:22;5.40;99.90
23685;DHT22;12020;51.384;6.908;2023-03-07T08:48:48;5.40;99.90
23685;DHT22;12020;51.384;6.908;2023-03-07T08:51:15;5.40;99.90
23685;DHT22;12020;51.384;6.908;2023-03-07T08:53:42;5.40;99.90
23685;DHT22;12020;51.384;6.908;2023-03-07T08:56:10;5.40;99.90
23685;DHT22;12020;51.384;6.908;2023-03-07T08:58:37;5.40;99.90
23685;DHT22;12020;51.384;6.908;2023-03-07T09:01:03;5.40;99.90
23685;DHT22;12020;51.384;6.908;2023-03-07T09:03:29;5.40;99.90
23685;DHT22;12020;51.384;6.908;2023-03-07T09:05:55;5.40;99.90
23685;DHT22;12020;51.384;6.908;2023-03-07T09:08:20;5.40;99.90
23685;DHT22;12020;51.384;6.908;2023-03-07T09:10:46;5.40;99.90
23685;DHT22;12020;51.384;6.908;2023-03-07T09:13:13;5.50;99.90
23685;DHT22;12020;51.384;6.908;2023-03-07T09:15:39;5.40;99.90
23685;DHT22;12020;51.384;6.908;2023-03-07T09:18:06;5.40;99.90
23685;DHT22;12020;51.384;6.908;2023-03-07T09:20:32;5.40;99.90
23685;DHT22;12020;51.384;6.908;2023-03-07T09:22:58;5.20;99.90
23685;DHT22;12020;51.384;6.908;2023-03-07T09:25:24;4.80;99.90
23685;DHT22;12020;51.384;6.908;2023-03-07T09:27:51;4.60;99.90
23685;DHT22;12020;51.384;6.908;2023-03-07T09:30:17;4.50;99.90
23685;DHT22;12020;51.384;6.908;2023-03-07T09:32:43;4.40;99.90
23685;DHT22;12020;51.384;6.908;2023-03-07T09:35:09;4.30;99.90
23685;DHT22;12020;51.384;6.908;2023-03-07T09:37:35;4.30;99.90
23685;DHT22;12020;51.384;6.908;2023-03-07T09:40:03;4.30;99.90
23685;DHT22;12020;51.384;6.908;2023-03-07T09:42:52;4.40;99.90
23685;DHT22;12020;51.384;6.908;2023-03-07T09:50:56;4.60;99.90
23685;DHT22;12020;51.384;6.908;2023-03-07T09:53:36;4.70;99.90
23685;DHT22;12020;51.384;6.908;2023-03-07T09:56:15;4.70;99.90
23685;DHT22;12020;51.384;6.908;2023-03-07T09:58:50;4.70;99.90
23685;DHT22;12020;51.384;6.908;2023-03-07T10:01:20;4.80;99.90
23685;DHT22;12020;51.384;6.908;2023-03-07T10:09:00;4.40;99.90
23685;DHT22;12020;51.384;6.908;2023-03-07T10:14:35;4.30;99.90
23685;DHT22;12020;51.384;6.908;2023-03-07T10:17:58;4.20;99.90
23685;DHT22;12020;51.384;6.908;2023-03-07T10:20:12;4.20;99.90
23685;DHT22;12020;51.384;6.908;2023-03-07T10:22:52;4.10;99.90
23685;DHT22;12020;51.384;6.908;2023-03-07T10:25:26;4.00;99.90
23685;DHT22;12020;51.384;6.908;2023-03-07T10:27:59;3.90;99.90
23685;DHT22;12020;51.384;6.908;2023-03-07T10:30:30;3.80;99.90
23685;DHT22;12020;51.384;6.908;2023-03-07T10:32:56;3.80;99.90
23685;DHT22;12020;51.384;6.908;2023-03-07T10:35:40;3.70;99.90
23685;DHT22;12020;51.384;6.908;2023-03-07T10:38:18;3.80;99.90
23685;DHT22;12020;51.384;6.908;2023-03-07T10:40:58;3.90;99.90
23685;DHT22;12020;51.384;6.908;2023-03-07T10:43:28;4.00;99.90
23685;DHT22;12020;51.384;6.908;2023-03-07T10:46:16;4.00;99.90
23685;DHT22;12020;51.384;6.908;2023-03-07T10:54:27;4.30;99.90
23685;DHT22;12020;51.384;6.908;2023-03-07T10:57:05;4.30;99.90
23685;DHT22;12020;51.384;6.908;2023-03-07T10:59:32;4.50;99.90
23685;DHT22;12020;51.384;6.908;2023-03-07T11:01:59;4.50;99.90
23685;DHT22;12020;51.384;6.908;2023-03-07T11:04:29;4.50;99.90
23685;DHT22;12020;51.384;6.908;2023-03-07T11:09:48;4.60;99.90
23685;DHT22;12020;51.384;6.908;2023-03-07T11:12:19;4.60;99.90
23685;DHT22;12020;51.384;6.908;2023-03-07T11:20:11;4.70;99.90
23685;DHT22;12020;51.384;6.908;2023-03-07T11:22:42;4.70;99.90
23685;DHT22;12020;51.384;6.908;2023-03-07T11:27:35;4.70;99.90
23685;DHT22;12020;51.384;6.908;2023-03-07T11:32:38;4.80;99.90
23685;DHT22;12020;51.384;6.908;2023-03-07T11:35:13;4.80;99.90
23685;DHT22;12020;51.384;6.908;2023-03-07T11:40:19;4.80;99.90
23685;DHT22;12020;51.384;6.908;2023-03-07T11:45:34;4.80;99.90
23685;DHT22;12020;51.384;6.908;2023-03-07T11:50:58;4.90;99.90
23685;DHT22;12020;51.384;6.908;2023-03-07T11:53:48;4.90;99.90
23685;DHT22;12020;51.384;6.908;2023-03-07T11:56:21;4.90;99.90
23685;DHT22;12020;51.384;6.908;2023-03-07T12:01:39;4.90;99.90
23685;DHT22;12020;51.384;6.908;2023-03-07T12:18:02;5.00;99.90
23685;DHT22;12020;51.384;6.908;2023-03-07T12:23:21;5.00;99.90
23685;DHT22;12020;51.384;6.908;2023-03-07T12:25:57;4.90;99.90
23685;DHT22;12020;51.384;6.908;2023-03-07T12:28:27;4.90;99.90
23685;DHT22;12020;51.384;6.908;2023-03-07T12:34:13;4.90;99.90
23685;DHT22;12020;51.384;6.908;2023-03-07T12:36:51;4.90;99.90
23685;DHT22;12020;51.384;6.908;2023-03-07T12:42:34;4.90;99.90
23685;DHT22;12020;51.384;6.908;2023-03-07T12:45:13;4.90;99.90
23685;DHT22;12020;51.384;6.908;2023-03-07T12:53:52;4.90;99.90
23685;DHT22;12020;51.384;6.908;2023-03-07T13:01:02;4.80;99.90
23685;DHT22;12020;51.384;6.908;2023-03-07T13:06:17;4.80;99.90
23685;DHT22;12020;51.384;6.908;2023-03-07T13:08:47;4.80;99.90
23685;DHT22;12020;51.384;6.908;2023-03-07T13:11:22;4.80;99.90
23685;DHT22;12020;51.384;6.908;2023-03-07T13:13:50;4.80;99.90
23685;DHT22;12020;51.384;6.908;2023-03-07T13:16:43;4.80;99.90
23685;DHT22;12020;51.384;6.908;2023-03-07T13:24:47;4.90;99.90
23685;DHT22;12020;51.384;6.908;2023-03-07T13:45:59;5.00;99.90
23685;DHT22;12020;51.384;6.908;2023-03-07T13:59:00;5.10;99.90
23685;DHT22;12020;51.384;6.908;2023-03-07T14:01:42;5.00;99.90
23685;DHT22;12020;51.384;6.908;2023-03-07T14:04:26;4.90;99.90
23685;DHT22;12020;51.384;6.908;2023-03-07T14:06:59;4.90;99.90
23685;DHT22;12020;51.384;6.908;2023-03-07T14:09:39;4.90;99.90
23685;DHT22;12020;51.384;6.908;2023-03-07T14:20:43;5.00;99.90
23685;DHT22;12020;51.384;6.908;2023-03-07T14:26:59;5.00;99.90
23685;DHT22;12020;51.384;6.908;2023-03-07T14:29:19;4.90;99.90
23685;DHT22;12020;51.384;6.908;2023-03-07T14:31:48;4.90;99.90
23685;DHT22;12020;51.384;6.908;2023-03-07T14:39:47;4.90;99.90
23685;DHT22;12020;51.384;6.908;2023-03-07T14:45:42;4.90;99.90
23685;DHT22;12020;51.384;6.908;2023-03-07T14:50:57;4.80;99.90
23685;DHT22;12020;51.384;6.908;2023-03-07T14:53:27;4.80;99.90
23685;DHT22;12020;51.384;6.908;2023-03-07T14:55:54;4.70;99.90
23685;DHT22;12020;51.384;6.908;2023-03-07T14:58:24;4.70;99.90
23685;DHT22;12020;51.384;6.908;2023-03-07T15:01:17;4.70;99.90
23685;DHT22;12020;51.384;6.908;2023-03-07T15:03:49;4.60;99.90
23685;DHT22;12020;51.384;6.908;2023-03-07T15:06:17;4.60;99.90
23685;DHT22;12020;51.384;6.908;2023-03-07T15:08:44;4.60;99.90
23685;DHT22;12020;51.384;6.908;2023-03-07T15:16:49;4.60;99.90
23685;DHT22;12020;51.384;6.908;2023-03-07T15:19:44;4.60;99.90
23685;DHT22;12020;51.384;6.908;2023-03-07T15:22:27;4.50;99.90
23685;DHT22;12020;51.384;6.908;2023-03-07T15:24:54;4.50;99.90
23685;DHT22;12020;51.384;6.908;2023-03-07T15:27:29;4.50;99.90
23685;DHT22;12020;51.384;6.908;2023-03-07T15:29:57;4.50;99.90
23685;DHT22;12020;51.384;6.908;2023-03-07T15:32:34;4.40;99.90
23685;DHT22;12020;51.384;6.908;2023-03-07T15:37:32;4.40;99.90
23685;DHT22;12020;51.384;6.908;2023-03-07T15:39:59;4.40;99.90
23685;DHT22;12020;51.384;6.908;2023-03-07T15:42:25;4.40;99.90
23685;DHT22;12020;51.384;6.908;2023-03-07T15:44:58;4.40;99.90
23685;DHT22;12020;51.384;6.908;2023-03-07T15:47:26;4.40;99.90
23685;DHT22;12020;51.384;6.908;2023-03-07T15:49:58;4.50;99.90
23685;DHT22;12020;51.384;6.908;2023-03-07T15:52:34;4.40;99.90
23685;DHT22;12020;51.384;6.908;2023-03-07T15:55:03;4.50;99.90
23685;DHT22;12020;51.384;6.908;2023-03-07T15:57:33;4.40;99.90
23685;DHT22;12020;51.384;6.908;2023-03-07T16:02:44;4.40;99.90
23685;DHT22;12020;51.384;6.908;2023-03-07T16:07:53;4.40;99.90
23685;DHT22;12020;51.384;6.908;2023-03-07T16:10:20;4.40;99.90
23685;DHT22;12020;51.384;6.908;2023-03-07T16:12:47;4.30;99.90
23685;DHT22;12020;51.384;6.908;2023-03-07T16:15:15;4.30;99.90
23685;DHT22;12020;51.384;6.908;2023-03-07T16:17:41;4.20;99.90
23685;DHT22;12020;51.384;6.908;2023-03-07T16:20:15;4.10;99.90
23685;DHT22;12020;51.384;6.908;2023-03-07T16:22:41;4.10;99.90
23685;DHT22;12020;51.384;6.908;2023-03-07T16:25:07;4.10;99.90
23685;DHT22;12020;51.384;6.908;2023-03-07T16:27:35;4.10;99.90
23685;DHT22;12020;51.384;6.908;2023-03-07T16:30:12;4.00;99.90
23685;DHT22;12020;51.384;6.908;2023-03-07T16:32:38;4.00;99.90
23685;DHT22;12020;51.384;6.908;2023-03-07T16:35:30;4.00;99.90
23685;DHT22;12020;51.384;6.908;2023-03-07T16:37:56;4.10;99.90
23685;DHT22;12020;51.384;6.908;2023-03-07T16:40:21;4.00;99.90
23685;DHT22;12020;51.384;6.908;2023-03-07T16:42:48;3.90;99.90
23685;DHT22;12020;51.384;6.908;2023-03-07T16:45:26;3.90;99.90
23685;DHT22;12020;51.384;6.908;2023-03-07T16:47:54;3.90;99.90
23685;DHT22;12020;51.384;6.908;2023-03-07T16:50:25;3.90;99.90
23685;DHT22;12020;51.384;6.908;2023-03-07T16:52:52;3.90;99.90
23685;DHT22;12020;51.384;6.908;2023-03-07T16:55:18;3.90;99.90
23685;DHT22;12020;51.384;6.908;2023-03-07T16:57:46;3.80;99.90
23685;DHT22;12020;51.384;6.908;2023-03-07T17:00:17;3.60;99.90
23685;DHT22;12020;51.384;6.908;2023-03-07T17:02:50;3.50;99.90
23685;DHT22;12020;51.384;6.908;2023-03-07T17:05:23;3.50;99.90
23685;DHT22;12020;51.384;6.908;2023-03-07T17:07:57;3.50;99.90
23685;DHT22;12020;51.384;6.908;2023-03-07T17:10:24;3.50;99.90
23685;DHT22;12020;51.384;6.908;2023-03-07T17:12:58;3.50;99.90
23685;DHT22;12020;51.384;6.908;2023-03-07T17:15:26;3.40;99.90
23685;DHT22;12020;51.384;6.908;2023-03-07T17:17:58;3.30;99.90
23685;DHT22;12020;51.384;6.908;2023-03-07T17:20:25;3.50;99.90
23685;DHT22;12020;51.384;6.908;2023-03-07T17:22:51;3.40;99.90
23685;DHT22;12020;51.384;6.908;2023-03-07T17:25:18;3.40;99.90
23685;DHT22;12020;51.384;6.908;2023-03-07T17:27:48;3.40;99.90
23685;DHT22;12020;51.384;6.908;2023-03-07T17:30:23;3.40;99.90
23685;DHT22;12020;51.384;6.908;2023-03-07T17:32:49;3.40;99.90
23685;DHT22;12020;51.384;6.908;2023-03-07T17:35:15;3.40;99.90
23685;DHT22;12020;51.384;6.908;2023-03-07T17:37:41;3.50;99.90
23685;DHT22;12020;51.384;6.908;2023-03-07T17:40:09;3.40;99.90
23685;DHT22;12020;51.384;6.908;2023-03-07T17:42:36;3.40;99.90
23685;DHT22;12020;51.384;6.908;2023-03-07T17:45:03;3.40;99.90
23685;DHT22;12020;51.384;6.908;2023-03-07T17:47:29;3.30;99.90
23685;DHT22;12020;51.384;6.908;2023-03-07T17:49:55;3.40;99.90
23685;DHT22;12020;51.384;6.908;2023-03-07T17:52:21;3.30;99.90
23685;DHT22;12020;51.384;6.908;2023-03-07T17:54:46;3.30;99.90
23685;DHT22;12020;51.384;6.908;2023-03-07T17:57:13;3.30;99.90
23685;DHT22;12020;51.384;6.908;2023-03-07T17:59:39;3.40;99.90
23685;DHT22;12020;51.384;6.908;2023-03-07T18:02:05;3.40;99.90
23685;DHT22;12020;51.384;6.908;2023-03-07T18:04:32;3.30;99.90
23685;DHT22;12020;51.384;6.908;2023-03-07T18:06:58;3.40;99.90
23685;DHT22;12020;51.384;6.908;2023-03-07T18:09:24;3.40;99.90
23685;DHT22;12020;51.384;6.908;2023-03-07T18:11:51;3.30;99.90
23685;DHT22;12020;51.384;6.908;2023-03-07T18:14:18;3.30;99.90
23685;DHT22;12020;51.384;6.908;2023-03-07T18:16:44;3.30;99.90
23685;DHT22;12020;51.384;6.908;2023-03-07T18:19:11;3.40;99.90
23685;DHT22;12020;51.384;6.908;2023-03-07T18:21:39;3.20;99.90
23685;DHT22;12020;51.384;6.908;2023-03-07T18:24:26;3.30;99.90
23685;DHT22;12020;51.384;6.908;2023-03-07T18:26:58;3.20;99.90
23685;DHT22;12020;51.384;6.908;2023-03-07T18:29:29;3.30;99.90
23685;DHT22;12020;51.384;6.908;2023-03-07T18:31:56;3.20;99.90
23685;DHT22;12020;51.384;6.908;2023-03-07T18:34:22;3.20;99.90